Lexington Park, Maryland
Current Conditions -  °F | °C
As of 8:52 PM on Thursday 20 Nov 2014 (Local Time) from KNHK Reporting Station
Clear Clear  
Wind Chill: 37°   Ceiling: Unl
Heat Index: 43°   Visibility: 10mi
Dew Point: 19°   Wind: 12mph
Humidity: 38%   Direction: 330°NNW
Pressure: 30.03"   Gusts: NA
Location:  38.27°N, 76.45°W
Report Text: KNHK 210152Z 33010KT 10SM CLR 06/M07 A3003 RMK AO2 SLP171 T00611072
Loading
Personal Weather Stations






























Interactive Weather Map New forecast layout! Learn more

10-Day Weather Forecast

Advertisements
Track Severe Weather on mobile